METAR AND TAF INFORMATION
METAR FOR VIDP
ADDS - METARS form results

(0412 UTC 26 August 2019)
Data provider http://aviationweather.gov/metar/data/
 
METAR text: VIDP 260400Z 11009KT 4000 HZ FEW035 SCT100 30/24 Q1005 NOSIG
Conditions at: VIDP (INDIRA GANDHI/DE, IN) observed 0400 UTC 26 August 2019
Temperature: 30.0°C (86°F)
Dewpoint: 24.0°C (75°F) [RH = 70%]
Pressure (altimeter): 29.68 inches Hg (1005.0 mb)
Winds: from the ESE (110 degrees) at 10 MPH (9 knots; 4.6 m/s)
Visibility: 2.49 miles (4.01 km)
Ceiling: at least 12,000 feet AGL
Clouds: few clouds at 3500 feet AGL
scattered clouds at 10000 feet AGL
Weather: HZ  (haze)

METAR text: VIDP 260330Z 11011KT 4000 HZ FEW035 SCT100 30/24 Q1005 NOSIG
Conditions at: VIDP (INDIRA GANDHI/DE, IN) observed 0330 UTC 26 August 2019
Temperature: 30.0°C (86°F)
Dewpoint: 24.0°C (75°F) [RH = 70%]
Pressure (altimeter): 29.68 inches Hg (1005.0 mb)
Winds: from the ESE (110 degrees) at 13 MPH (11 knots; 5.7 m/s)
Visibility: 2.49 miles (4.01 km)
Ceiling: at least 12,000 feet AGL
Clouds: few clouds at 3500 feet AGL
scattered clouds at 10000 feet AGL
Weather: HZ  (haze)

Forecast for: VIDP (INDIRA GANDHI/DE, IN)
Text: TAF VIDP 260200Z 2603/2612 05004KT 2500 BR -RA SCT030 BKN100
Forecast period: 0300 to 0800 UTC 26 August 2019
Forecast type: FROM: standard forecast or significant change
Winds: from the NE (50 degrees) at 5 MPH (4 knots; 2.1 m/s)
Visibility: 1.55 miles (2.49 km)
Ceiling: 10000 feet AGL
Clouds: scattered clouds at 3000 feet AGL
broken clouds at 10000 feet AGL
Weather: BR -RA  (mist, light rain)
Text: BECMG 2608/2610 08005KT 3000 BR HZ SCT035 BKN090
Forecast period: 0800 to 1200 UTC 26 August 2019
Forecast type: BECOMING: Conditions expected to become as follows by 1000 UTC 26 August 2019
Winds: from the E (80 degrees) at 6 MPH (5 knots; 2.6 m/s)
Visibility: 1.86 miles (2.99 km)
Ceiling: 9000 feet AGL
Clouds: scattered clouds at 3500 feet AGL
broken clouds at 9000 feet AGL
Weather: BR HZ  (mist, haze)

 AIRPORT MAP

 RUNWAY INFORMATION

 AIRPORT FREQUENCIES
Type APP Name DELHI APP Frequency 126.35 MHZ
Type AREA CONTR Name DELHI CONT Frequency 120.9 MHZ
Type AREA CONTR Name DELHI CONT Frequency 124.55 MHZ
Type ATIS Name ATIS Frequency 126.4 MHZ
Type CLD Name Clearance Frequency 121.95 MHZ
Type GND Name DELHI GND Frequency 121.9 MHZ
Type TWR Name DELHI TWR Frequency 118.1 MHZ
Type TWR Name DELHI TWR Frequency 118.25 MHZ
Type TWR Name DELHI TWR Frequency 118.75 MHZ

 AIRPORT NEAR NAVIGATION AIDS
Type NDB Name Delhi Frequency 202 KHZ
Type NDB Name Delhi Frequency 274 KHZ
Type VOR-DME Name Delhi Frequency 116100 KHZ
Type NDB Name Delhi Frequency 320 KHZ
Type NDB Name Delhi Frequency 303 KHZ



2018 Air Astana Virtual Airline